sensor_id;sensor_type;location;lat;lon;timestamp;pressure;altitude;pressure_sealevel;temperature;humidity
10176;BME280;18221;38.704;0.152;2023-12-20T00:01:16;99565.78;;;17.39;19.45
10176;BME280;18221;38.704;0.152;2023-12-20T00:03:44;99554.53;;;17.35;19.88
10176;BME280;18221;38.704;0.152;2023-12-20T00:06:12;99552.34;;;17.39;19.39
10176;BME280;18221;38.704;0.152;2023-12-20T00:08:40;99553.22;;;17.31;20.26
10176;BME280;18221;38.704;0.152;2023-12-20T00:11:09;99527.69;;;17.35;19.56
10176;BME280;18221;38.704;0.152;2023-12-20T00:13:37;99526.50;;;17.29;19.81
10176;BME280;18221;38.704;0.152;2023-12-20T00:16:05;99522.97;;;17.37;19.17
10176;BME280;18221;38.704;0.152;2023-12-20T00:18:33;99511.06;;;17.32;19.67
10176;BME280;18221;38.704;0.152;2023-12-20T00:21:02;99508.06;;;17.35;19.30
10176;BME280;18221;38.704;0.152;2023-12-20T00:23:30;99512.75;;;17.33;19.54
10176;BME280;18221;38.704;0.152;2023-12-20T00:25:58;99500.84;;;17.35;19.63
10176;BME280;18221;38.704;0.152;2023-12-20T00:28:28;99500.34;;;17.32;19.55
10176;BME280;18221;38.704;0.152;2023-12-20T00:30:56;99498.16;;;17.27;19.10
10176;BME280;18221;38.704;0.152;2023-12-20T00:33:24;99494.63;;;17.35;18.81
10176;BME280;18221;38.704;0.152;2023-12-20T00:35:52;99503.31;;;17.45;18.56
10176;BME280;18221;38.704;0.152;2023-12-20T00:38:20;99513.06;;;17.46;18.67
10176;BME280;18221;38.704;0.152;2023-12-20T00:40:48;99520.28;;;17.45;18.13
10176;BME280;18221;38.704;0.152;2023-12-20T00:43:17;99520.81;;;17.33;18.28
10176;BME280;18221;38.704;0.152;2023-12-20T00:45:46;99518.63;;;17.36;18.20
10176;BME280;18221;38.704;0.152;2023-12-20T00:48:14;99505.03;;;17.38;18.05
10176;BME280;18221;38.704;0.152;2023-12-20T01:03:47;99472.44;;;17.65;16.24
10176;BME280;18221;38.704;0.152;2023-12-20T01:06:17;99469.03;;;17.71;16.02
10176;BME280;18221;38.704;0.152;2023-12-20T01:08:45;99472.78;;;17.62;16.29
10176;BME280;18221;38.704;0.152;2023-12-20T01:11:14;99473.06;;;17.75;16.15
10176;BME280;18221;38.704;0.152;2023-12-20T01:13:42;99465.97;;;17.82;15.79
10176;BME280;18221;38.704;0.152;2023-12-20T01:16:11;99463.59;;;17.87;15.56
10176;BME280;18221;38.704;0.152;2023-12-20T01:18:39;99463.59;;;17.87;15.72
10176;BME280;18221;38.704;0.152;2023-12-20T01:21:09;99456.91;;;17.83;15.87
10176;BME280;18221;38.704;0.152;2023-12-20T01:23:37;99451.00;;;17.87;15.59
10176;BME280;18221;38.704;0.152;2023-12-20T01:26:05;99457.72;;;17.83;15.44
10176;BME280;18221;38.704;0.152;2023-12-20T01:28:33;99452.84;;;17.87;15.31
10176;BME280;18221;38.704;0.152;2023-12-20T01:31:02;99453.09;;;17.77;15.44
10176;BME280;18221;38.704;0.152;2023-12-20T01:33:32;99457.06;;;17.81;15.20
10176;BME280;18221;38.704;0.152;2023-12-20T01:36:00;99457.03;;;17.89;15.01
10176;BME280;18221;38.704;0.152;2023-12-20T01:38:30;99457.72;;;17.83;15.00
10176;BME280;18221;38.704;0.152;2023-12-20T01:40:58;99444.09;;;17.93;14.77
10176;BME280;18221;38.704;0.152;2023-12-20T01:43:27;99442.16;;;18.10;14.50
10176;BME280;18221;38.704;0.152;2023-12-20T01:45:56;99446.75;;;18.01;14.71
10176;BME280;18221;38.704;0.152;2023-12-20T01:48:25;99445.72;;;18.02;14.49
10176;BME280;18221;38.704;0.152;2023-12-20T01:50:55;99440.69;;;17.99;14.55
10176;BME280;18221;38.704;0.152;2023-12-20T01:53:25;99442.13;;;17.87;15.48
10176;BME280;18221;38.704;0.152;2023-12-20T01:55:58;99441.75;;;17.90;15.68
10176;BME280;18221;38.704;0.152;2023-12-20T01:58:29;99439.38;;;17.95;16.09
10176;BME280;18221;38.704;0.152;2023-12-20T02:00:58;99445.56;;;18.04;15.82
10176;BME280;18221;38.704;0.152;2023-12-20T02:03:27;99451.16;;;17.86;15.55
10176;BME280;18221;38.704;0.152;2023-12-20T02:05:55;99441.13;;;17.88;15.36
10176;BME280;18221;38.704;0.152;2023-12-20T02:08:23;99432.50;;;17.93;15.11
10176;BME280;18221;38.704;0.152;2023-12-20T02:10:52;99428.59;;;18.03;15.46
10176;BME280;18221;38.704;0.152;2023-12-20T02:13:21;99412.59;;;18.10;15.69
10176;BME280;18221;38.704;0.152;2023-12-20T02:15:49;99422.97;;;18.13;15.70
10176;BME280;18221;38.704;0.152;2023-12-20T02:18:17;99421.69;;;18.09;15.84
10176;BME280;18221;38.704;0.152;2023-12-20T02:20:45;99421.19;;;18.05;15.88
10176;BME280;18221;38.704;0.152;2023-12-20T02:23:15;99426.28;;;18.23;16.03
10176;BME280;18221;38.704;0.152;2023-12-20T02:25:43;99435.44;;;18.36;15.89
10176;BME280;18221;38.704;0.152;2023-12-20T02:28:11;99426.06;;;18.32;15.98
10176;BME280;18221;38.704;0.152;2023-12-20T02:30:39;99422.34;;;18.33;15.56
10176;BME280;18221;38.704;0.152;2023-12-20T02:33:11;99428.72;;;18.10;15.61
10176;BME280;18221;38.704;0.152;2023-12-20T02:35:39;99423.38;;;18.02;15.94
10176;BME280;18221;38.704;0.152;2023-12-20T02:38:07;99421.22;;;17.97;16.00
10176;BME280;18221;38.704;0.152;2023-12-20T02:40:39;99414.00;;;17.98;16.01
10176;BME280;18221;38.704;0.152;2023-12-20T02:43:07;99413.34;;;17.96;16.12
10176;BME280;18221;38.704;0.152;2023-12-20T02:45:35;99425.34;;;17.85;15.93
10176;BME280;18221;38.704;0.152;2023-12-20T02:48:03;99416.19;;;17.94;15.96
10176;BME280;18221;38.704;0.152;2023-12-20T02:50:32;99419.13;;;17.84;15.96
10176;BME280;18221;38.704;0.152;2023-12-20T02:53:00;99417.19;;;18.01;16.14
10176;BME280;18221;38.704;0.152;2023-12-20T02:55:28;99411.09;;;18.07;16.32
10176;BME280;18221;38.704;0.152;2023-12-20T02:57:57;99407.41;;;18.08;16.45
10176;BME280;18221;38.704;0.152;2023-12-20T03:00:25;99409.34;;;18.22;16.65
10176;BME280;18221;38.704;0.152;2023-12-20T03:02:53;99407.28;;;18.24;16.80
10176;BME280;18221;38.704;0.152;2023-12-20T03:05:21;99408.13;;;18.25;16.76
10176;BME280;18221;38.704;0.152;2023-12-20T03:07:50;99407.47;;;18.23;16.87
10176;BME280;18221;38.704;0.152;2023-12-20T03:10:19;99389.31;;;18.25;16.76
10176;BME280;18221;38.704;0.152;2023-12-20T03:12:47;99389.63;;;18.30;16.66
10176;BME280;18221;38.704;0.152;2023-12-20T03:15:16;99393.50;;;18.27;16.70
10176;BME280;18221;38.704;0.152;2023-12-20T03:17:44;99381.66;;;18.36;16.77
10176;BME280;18221;38.704;0.152;2023-12-20T03:20:12;99383.16;;;18.16;16.83
10176;BME280;18221;38.704;0.152;2023-12-20T03:22:52;99371.06;;;18.12;17.06
10176;BME280;18221;38.704;0.152;2023-12-20T03:25:22;99371.69;;;18.22;16.83
10176;BME280;18221;38.704;0.152;2023-12-20T03:27:50;99367.38;;;18.13;16.81
10176;BME280;18221;38.704;0.152;2023-12-20T03:30:19;99377.44;;;18.19;16.87
10176;BME280;18221;38.704;0.152;2023-12-20T03:32:48;99362.84;;;18.14;16.97
10176;BME280;18221;38.704;0.152;2023-12-20T03:35:15;99354.81;;;18.28;16.93
10176;BME280;18221;38.704;0.152;2023-12-20T03:37:43;99358.63;;;18.19;16.95
10176;BME280;18221;38.704;0.152;2023-12-20T03:40:11;99360.50;;;18.11;16.83
10176;BME280;18221;38.704;0.152;2023-12-20T03:42:39;99349.31;;;17.99;17.11
10176;BME280;18221;38.704;0.152;2023-12-20T03:45:09;99334.25;;;17.98;17.04
10176;BME280;18221;38.704;0.152;2023-12-20T03:47:39;99342.16;;;17.92;17.19
10176;BME280;18221;38.704;0.152;2023-12-20T03:50:07;99343.84;;;17.93;17.03
10176;BME280;18221;38.704;0.152;2023-12-20T03:52:35;99343.31;;;17.97;17.01
10176;BME280;18221;38.704;0.152;2023-12-20T03:55:05;99333.69;;;18.03;16.95
10176;BME280;18221;38.704;0.152;2023-12-20T03:57:33;99335.03;;;18.07;16.84
10176;BME280;18221;38.704;0.152;2023-12-20T04:00:01;99328.31;;;18.03;16.79
10176;BME280;18221;38.704;0.152;2023-12-20T04:02:29;99323.09;;;18.09;16.70
10176;BME280;18221;38.704;0.152;2023-12-20T04:04:58;99326.22;;;18.13;16.37
10176;BME280;18221;38.704;0.152;2023-12-20T04:07:27;99315.53;;;18.27;16.18
10176;BME280;18221;38.704;0.152;2023-12-20T04:09:56;99303.03;;;18.34;16.10
10176;BME280;18221;38.704;0.152;2023-12-20T04:12:23;99301.53;;;18.32;16.11
10176;BME280;18221;38.704;0.152;2023-12-20T04:14:52;99302.75;;;18.29;16.17
10176;BME280;18221;38.704;0.152;2023-12-20T04:17:21;99296.47;;;18.37;15.89
10176;BME280;18221;38.704;0.152;2023-12-20T04:19:49;99296.25;;;18.24;15.83
10176;BME280;18221;38.704;0.152;2023-12-20T04:22:19;99293.66;;;18.30;15.61
10176;BME280;18221;38.704;0.152;2023-12-20T04:24:49;99297.91;;;18.47;15.37
10176;BME280;18221;38.704;0.152;2023-12-20T04:27:17;99285.31;;;18.63;15.60
10176;BME280;18221;38.704;0.152;2023-12-20T04:29:44;99282.06;;;18.82;15.71
10176;BME280;18221;38.704;0.152;2023-12-20T04:32:12;99271.03;;;18.91;15.51
10176;BME280;18221;38.704;0.152;2023-12-20T04:34:40;99279.84;;;19.00;15.55
10176;BME280;18221;38.704;0.152;2023-12-20T04:37:08;99278.25;;;19.05;15.42
10176;BME280;18221;38.704;0.152;2023-12-20T04:39:37;99272.59;;;19.00;15.33
10176;BME280;18221;38.704;0.152;2023-12-20T04:42:09;99263.69;;;18.71;14.59
10176;BME280;18221;38.704;0.152;2023-12-20T04:44:37;99251.06;;;18.57;14.84
10176;BME280;18221;38.704;0.152;2023-12-20T04:47:05;99251.34;;;18.62;15.19
10176;BME280;18221;38.704;0.152;2023-12-20T04:49:33;99253.94;;;18.55;15.04
10176;BME280;18221;38.704;0.152;2023-12-20T04:52:00;99255.25;;;18.59;14.98
10176;BME280;18221;38.704;0.152;2023-12-20T04:54:28;99249.97;;;18.66;15.05
10176;BME280;18221;38.704;0.152;2023-12-20T04:56:58;99261.47;;;18.60;14.96
10176;BME280;18221;38.704;0.152;2023-12-20T04:59:26;99256.72;;;18.62;14.97
10176;BME280;18221;38.704;0.152;2023-12-20T05:01:54;99259.81;;;18.59;15.19
10176;BME280;18221;38.704;0.152;2023-12-20T05:04:22;99272.78;;;18.70;15.04
10176;BME280;18221;38.704;0.152;2023-12-20T05:06:50;99269.34;;;18.76;15.42
10176;BME280;18221;38.704;0.152;2023-12-20T05:09:18;99270.00;;;18.63;15.01
10176;BME280;18221;38.704;0.152;2023-12-20T05:11:46;99264.50;;;18.57;15.03
10176;BME280;18221;38.704;0.152;2023-12-20T05:14:15;99256.75;;;18.24;14.70
10176;BME280;18221;38.704;0.152;2023-12-20T05:16:43;99255.06;;;18.09;14.64
10176;BME280;18221;38.704;0.152;2023-12-20T05:19:11;99262.38;;;18.15;14.85
10176;BME280;18221;38.704;0.152;2023-12-20T05:21:40;99252.94;;;18.19;14.77
10176;BME280;18221;38.704;0.152;2023-12-20T05:24:08;99244.22;;;18.17;14.92
10176;BME280;18221;38.704;0.152;2023-12-20T05:26:36;99249.56;;;18.02;15.08
10176;BME280;18221;38.704;0.152;2023-12-20T05:29:04;99251.88;;;18.05;14.77
10176;BME280;18221;38.704;0.152;2023-12-20T05:31:34;99257.69;;;17.94;15.10
10176;BME280;18221;38.704;0.152;2023-12-20T05:34:02;99262.06;;;17.95;15.21
10176;BME280;18221;38.704;0.152;2023-12-20T05:36:30;99257.75;;;17.86;15.35
10176;BME280;18221;38.704;0.152;2023-12-20T05:38:59;99273.34;;;17.91;15.22
10176;BME280;18221;38.704;0.152;2023-12-20T05:41:28;99269.75;;;17.75;15.67
10176;BME280;18221;38.704;0.152;2023-12-20T05:43:56;99264.06;;;17.70;15.68
10176;BME280;18221;38.704;0.152;2023-12-20T05:46:24;99266.34;;;17.59;15.41
10176;BME280;18221;38.704;0.152;2023-12-20T05:48:53;99264.00;;;17.56;15.63
10176;BME280;18221;38.704;0.152;2023-12-20T05:51:21;99256.56;;;17.66;15.13
10176;BME280;18221;38.704;0.152;2023-12-20T05:53:49;99254.56;;;17.60;15.06
10176;BME280;18221;38.704;0.152;2023-12-20T05:56:17;99261.03;;;17.73;14.84
10176;BME280;18221;38.704;0.152;2023-12-20T05:58:45;99264.22;;;17.77;15.17
10176;BME280;18221;38.704;0.152;2023-12-20T06:01:15;99258.59;;;17.64;14.97
10176;BME280;18221;38.704;0.152;2023-12-20T06:03:44;99253.47;;;17.77;15.05
10176;BME280;18221;38.704;0.152;2023-12-20T06:06:14;99258.13;;;17.83;14.80
10176;BME280;18221;38.704;0.152;2023-12-20T06:08:42;99264.16;;;17.85;14.98
10176;BME280;18221;38.704;0.152;2023-12-20T06:11:11;99255.50;;;17.75;14.98
10176;BME280;18221;38.704;0.152;2023-12-20T06:13:39;99258.69;;;17.70;14.96
10176;BME280;18221;38.704;0.152;2023-12-20T06:16:07;99268.88;;;17.83;14.88
10176;BME280;18221;38.704;0.152;2023-12-20T06:18:35;99266.84;;;17.85;14.95
10176;BME280;18221;38.704;0.152;2023-12-20T06:21:04;99267.94;;;17.68;15.15
10176;BME280;18221;38.704;0.152;2023-12-20T06:23:35;99275.75;;;17.85;15.23
10176;BME280;18221;38.704;0.152;2023-12-20T06:26:03;99282.28;;;18.06;15.00
10176;BME280;18221;38.704;0.152;2023-12-20T06:28:31;99285.19;;;18.19;15.29
10176;BME280;18221;38.704;0.152;2023-12-20T06:30:59;99286.03;;;18.19;15.26
10176;BME280;18221;38.704;0.152;2023-12-20T06:33:27;99288.78;;;18.11;16.15
10176;BME280;18221;38.704;0.152;2023-12-20T06:35:55;99297.09;;;18.02;16.37
10176;BME280;18221;38.704;0.152;2023-12-20T06:38:23;99299.06;;;18.08;16.68
10176;BME280;18221;38.704;0.152;2023-12-20T06:40:53;99305.16;;;18.02;16.62
10176;BME280;18221;38.704;0.152;2023-12-20T06:43:23;99298.22;;;17.84;16.88
10176;BME280;18221;38.704;0.152;2023-12-20T06:45:51;99300.72;;;17.86;16.65
10176;BME280;18221;38.704;0.152;2023-12-20T06:48:19;99300.72;;;17.86;16.55
10176;BME280;18221;38.704;0.152;2023-12-20T06:50:47;99304.09;;;17.88;16.90
10176;BME280;18221;38.704;0.152;2023-12-20T06:53:15;99299.72;;;17.87;16.73
10176;BME280;18221;38.704;0.152;2023-12-20T06:55:43;99304.19;;;17.72;17.09
10176;BME280;18221;38.704;0.152;2023-12-20T06:58:13;99303.84;;;17.75;17.04
10176;BME280;18221;38.704;0.152;2023-12-20T07:00:41;99297.28;;;18.00;17.30
10176;BME280;18221;38.704;0.152;2023-12-20T07:03:10;99295.28;;;17.94;17.54
10176;BME280;18221;38.704;0.152;2023-12-20T07:05:38;99296.94;;;17.80;17.79
10176;BME280;18221;38.704;0.152;2023-12-20T07:08:07;99303.13;;;18.04;17.73
10176;BME280;18221;38.704;0.152;2023-12-20T07:10:35;99303.84;;;17.98;18.42
10176;BME280;18221;38.704;0.152;2023-12-20T07:13:03;99314.81;;;18.11;18.21
10176;BME280;18221;38.704;0.152;2023-12-20T07:15:32;99303.53;;;17.93;18.98
10176;BME280;18221;38.704;0.152;2023-12-20T07:18:02;99310.75;;;17.92;19.14
10176;BME280;18221;38.704;0.152;2023-12-20T07:20:30;99305.75;;;17.89;19.33
10176;BME280;18221;38.704;0.152;2023-12-20T07:22:58;99321.97;;;17.73;20.70
10176;BME280;18221;38.704;0.152;2023-12-20T07:25:26;99311.72;;;17.99;20.27
10176;BME280;18221;38.704;0.152;2023-12-20T07:27:54;99321.66;;;17.99;20.50
10176;BME280;18221;38.704;0.152;2023-12-20T07:30:22;99323.25;;;18.08;20.85
10176;BME280;18221;38.704;0.152;2023-12-20T07:32:52;99331.53;;;18.21;20.60
10176;BME280;18221;38.704;0.152;2023-12-20T07:35:20;99338.97;;;18.19;21.15
10176;BME280;18221;38.704;0.152;2023-12-20T07:37:48;99332.41;;;17.99;21.46
10176;BME280;18221;38.704;0.152;2023-12-20T07:40:16;99345.03;;;18.13;21.78
10176;BME280;18221;38.704;0.152;2023-12-20T07:42:44;99344.38;;;18.11;21.75
10176;BME280;18221;38.704;0.152;2023-12-20T07:45:12;99349.28;;;18.30;21.55
10176;BME280;18221;38.704;0.152;2023-12-20T07:47:40;99356.44;;;18.37;22.17
10176;BME280;18221;38.704;0.152;2023-12-20T07:50:09;99352.78;;;18.30;22.26
10176;BME280;18221;38.704;0.152;2023-12-20T07:52:37;99356.50;;;18.29;22.50
10176;BME280;18221;38.704;0.152;2023-12-20T07:55:07;99360.84;;;18.30;23.08
10176;BME280;18221;38.704;0.152;2023-12-20T07:57:35;99361.00;;;18.14;23.23
10176;BME280;18221;38.704;0.152;2023-12-20T08:00:04;99365.47;;;18.22;23.50
10176;BME280;18221;38.704;0.152;2023-12-20T08:02:32;99359.84;;;18.31;23.72
10176;BME280;18221;38.704;0.152;2023-12-20T08:05:00;99352.44;;;18.33;23.72
10176;BME280;18221;38.704;0.152;2023-12-20T08:07:30;99361.75;;;18.23;24.33
10176;BME280;18221;38.704;0.152;2023-12-20T08:09:58;99353.22;;;18.42;24.27
10176;BME280;18221;38.704;0.152;2023-12-20T08:12:26;99361.69;;;18.31;24.85
10176;BME280;18221;38.704;0.152;2023-12-20T08:14:55;99367.13;;;18.45;24.75
10176;BME280;18221;38.704;0.152;2023-12-20T08:17:23;99365.97;;;18.48;24.79
10176;BME280;18221;38.704;0.152;2023-12-20T08:19:51;99344.31;;;18.41;25.34
10176;BME280;18221;38.704;0.152;2023-12-20T08:22:19;99351.72;;;18.39;25.35
10176;BME280;18221;38.704;0.152;2023-12-20T08:24:48;99353.00;;;18.43;25.70
10176;BME280;18221;38.704;0.152;2023-12-20T08:27:16;99348.53;;;18.36;25.91
10176;BME280;18221;38.704;0.152;2023-12-20T08:29:44;99362.19;;;18.34;26.06
10176;BME280;18221;38.704;0.152;2023-12-20T08:32:12;99352.88;;;18.22;26.35
10176;BME280;18221;38.704;0.152;2023-12-20T08:34:40;99363.94;;;18.27;26.29
10176;BME280;18221;38.704;0.152;2023-12-20T08:37:08;99358.16;;;18.30;26.31
10176;BME280;18221;38.704;0.152;2023-12-20T08:39:38;99356.22;;;18.24;26.70
10176;BME280;18221;38.704;0.152;2023-12-20T08:42:07;99360.34;;;18.35;26.42
10176;BME280;18221;38.704;0.152;2023-12-20T08:44:38;99359.66;;;18.33;26.50
10176;BME280;18221;38.704;0.152;2023-12-20T08:47:06;99355.16;;;18.56;26.21
10176;BME280;18221;38.704;0.152;2023-12-20T08:49:34;99363.78;;;18.43;26.47
10176;BME280;18221;38.704;0.152;2023-12-20T08:52:02;99367.13;;;18.45;26.38
10176;BME280;18221;38.704;0.152;2023-12-20T08:54:30;99369.78;;;18.54;26.14
10176;BME280;18221;38.704;0.152;2023-12-20T08:56:58;99364.44;;;18.68;25.93
10176;BME280;18221;38.704;0.152;2023-12-20T08:59:28;99368.69;;;18.63;26.28
10176;BME280;18221;38.704;0.152;2023-12-20T09:01:56;99371.72;;;18.60;26.47
10176;BME280;18221;38.704;0.152;2023-12-20T09:04:24;99356.84;;;18.72;26.18
10176;BME280;18221;38.704;0.152;2023-12-20T09:06:52;99357.22;;;18.69;26.58
10176;BME280;18221;38.704;0.152;2023-12-20T09:09:20;99359.97;;;18.75;26.39
10176;BME280;18221;38.704;0.152;2023-12-20T09:11:48;99357.66;;;18.72;26.63
10176;BME280;18221;38.704;0.152;2023-12-20T09:14:17;99354.25;;;18.78;26.62
10176;BME280;18221;38.704;0.152;2023-12-20T09:16:47;99363.59;;;18.68;26.66
10176;BME280;18221;38.704;0.152;2023-12-20T09:19:17;99358.69;;;18.86;26.63
10176;BME280;18221;38.704;0.152;2023-12-20T09:21:45;99366.50;;;18.81;27.02
10176;BME280;18221;38.704;0.152;2023-12-20T09:24:13;99370.50;;;18.85;26.99
10176;BME280;18221;38.704;0.152;2023-12-20T09:26:41;99369.56;;;19.07;26.84
10176;BME280;18221;38.704;0.152;2023-12-20T09:29:10;99372.94;;;19.24;26.50
10176;BME280;18221;38.704;0.152;2023-12-20T09:31:41;99384.16;;;19.27;26.67
10176;BME280;18221;38.704;0.152;2023-12-20T09:34:11;99392.97;;;19.36;26.68
10176;BME280;18221;38.704;0.152;2023-12-20T09:36:39;99392.66;;;19.39;26.84
10176;BME280;18221;38.704;0.152;2023-12-20T09:39:13;99407.41;;;19.57;26.77
10176;BME280;18221;38.704;0.152;2023-12-20T09:41:44;99402.34;;;19.69;26.68
10176;BME280;18221;38.704;0.152;2023-12-20T09:44:16;99409.22;;;19.71;26.65
10176;BME280;18221;38.704;0.152;2023-12-20T09:46:50;99411.75;;;19.58;27.00
10176;BME280;18221;38.704;0.152;2023-12-20T09:49:20;99423.22;;;19.82;26.50
10176;BME280;18221;38.704;0.152;2023-12-20T09:51:50;99431.81;;;19.70;26.96
10176;BME280;18221;38.704;0.152;2023-12-20T09:54:20;99423.53;;;19.72;26.92
10176;BME280;18221;38.704;0.152;2023-12-20T09:56:49;99430.53;;;19.52;27.11
10176;BME280;18221;38.704;0.152;2023-12-20T09:59:17;99434.50;;;19.70;26.90
10176;BME280;18221;38.704;0.152;2023-12-20T10:01:45;99439.34;;;19.46;27.19
10176;BME280;18221;38.704;0.152;2023-12-20T10:04:14;99441.09;;;19.53;27.36
10176;BME280;18221;38.704;0.152;2023-12-20T10:06:45;99432.38;;;19.51;27.42
10176;BME280;18221;38.704;0.152;2023-12-20T10:09:13;99442.69;;;19.48;27.27
10176;BME280;18221;38.704;0.152;2023-12-20T10:11:41;99441.00;;;19.61;27.31
10176;BME280;18221;38.704;0.152;2023-12-20T10:14:11;99436.53;;;19.68;27.20
10176;BME280;18221;38.704;0.152;2023-12-20T10:16:40;99443.06;;;19.59;27.52
10176;BME280;18221;38.704;0.152;2023-12-20T10:19:08;99445.38;;;19.48;27.87
10176;BME280;18221;38.704;0.152;2023-12-20T10:21:36;99424.75;;;19.40;27.79
10176;BME280;18221;38.704;0.152;2023-12-20T10:24:06;99425.88;;;19.46;28.07
10176;BME280;18221;38.704;0.152;2023-12-20T10:26:34;99435.97;;;19.29;28.13
10176;BME280;18221;38.704;0.152;2023-12-20T10:29:05;99433.31;;;19.44;27.97
10176;BME280;18221;38.704;0.152;2023-12-20T10:31:34;99437.91;;;19.35;28.23
10176;BME280;18221;38.704;0.152;2023-12-20T10:34:05;99440.84;;;19.63;27.82
10176;BME280;18221;38.704;0.152;2023-12-20T10:36:33;99437.47;;;19.76;27.61
10176;BME280;18221;38.704;0.152;2023-12-20T10:39:05;99436.81;;;19.73;27.67
10176;BME280;18221;38.704;0.152;2023-12-20T10:41:35;99442.00;;;19.90;27.54
10176;BME280;18221;38.704;0.152;2023-12-20T10:44:08;99433.53;;;19.93;27.34
10176;BME280;18221;38.704;0.152;2023-12-20T10:46:41;99431.75;;;20.00;27.18
10176;BME280;18221;38.704;0.152;2023-12-20T10:49:16;99414.56;;;20.01;27.00
10176;BME280;18221;38.704;0.152;2023-12-20T10:51:47;99424.75;;;19.69;27.26
10176;BME280;18221;38.704;0.152;2023-12-20T10:54:18;99421.81;;;20.00;26.97
10176;BME280;18221;38.704;0.152;2023-12-20T10:56:46;99421.53;;;20.10;26.89
10176;BME280;18221;38.704;0.152;2023-12-20T10:59:19;99419.56;;;20.04;26.85
10176;BME280;18221;38.704;0.152;2023-12-20T11:01:50;99426.50;;;19.92;27.02
10176;BME280;18221;38.704;0.152;2023-12-20T11:04:25;99422.84;;;19.99;26.87
10176;BME280;18221;38.704;0.152;2023-12-20T11:07:05;99418.41;;;20.13;26.69
10176;BME280;18221;38.704;0.152;2023-12-20T11:09:43;99397.16;;;20.03;26.76
10176;BME280;18221;38.704;0.152;2023-12-20T11:12:26;99398.22;;;19.88;27.12
10176;BME280;18221;38.704;0.152;2023-12-20T11:14:58;99389.66;;;19.99;27.42
10176;BME280;18221;38.704;0.152;2023-12-20T11:17:32;99399.56;;;19.77;27.47
10176;BME280;18221;38.704;0.152;2023-12-20T11:20:09;99386.59;;;19.87;27.28
10176;BME280;18221;38.704;0.152;2023-12-20T11:22:52;99387.91;;;19.91;27.33
10176;BME280;18221;38.704;0.152;2023-12-20T11:25:22;99387.53;;;19.94;27.36
10176;BME280;18221;38.704;0.152;2023-12-20T11:28:11;99377.56;;;19.95;27.27
10176;BME280;18221;38.704;0.152;2023-12-20T11:30:46;99383.81;;;20.16;26.67
10176;BME280;18221;38.704;0.152;2023-12-20T11:33:15;99376.63;;;20.38;26.33
10176;BME280;18221;38.704;0.152;2023-12-20T11:35:46;99382.81;;;20.17;26.53
10176;BME280;18221;38.704;0.152;2023-12-20T11:38:16;99385.00;;;20.07;26.78
10176;BME280;18221;38.704;0.152;2023-12-20T11:40:50;99384.06;;;20.00;26.72
10176;BME280;18221;38.704;0.152;2023-12-20T11:43:31;99381.63;;;20.05;26.75
10176;BME280;18221;38.704;0.152;2023-12-20T11:46:07;99377.03;;;19.99;27.07
10176;BME280;18221;38.704;0.152;2023-12-20T11:48:38;99378.63;;;20.15;26.74
10176;BME280;18221;38.704;0.152;2023-12-20T11:51:10;99357.59;;;20.25;26.31
10176;BME280;18221;38.704;0.152;2023-12-20T11:53:38;99360.09;;;20.26;26.45
10176;BME280;18221;38.704;0.152;2023-12-20T11:56:08;99357.56;;;20.04;27.03
10176;BME280;18221;38.704;0.152;2023-12-20T11:58:37;99366.63;;;20.17;26.74
10176;BME280;18221;38.704;0.152;2023-12-20T12:01:05;99349.56;;;20.31;26.51
10176;BME280;18221;38.704;0.152;2023-12-20T12:03:34;99357.19;;;20.49;26.12
10176;BME280;18221;38.704;0.152;2023-12-20T12:06:03;99358.34;;;20.61;26.03
10176;BME280;18221;38.704;0.152;2023-12-20T12:08:31;99357.38;;;20.69;25.81
10176;BME280;18221;38.704;0.152;2023-12-20T12:10:59;99364.19;;;20.92;25.66
10176;BME280;18221;38.704;0.152;2023-12-20T12:13:29;99359.09;;;20.76;25.82
10176;BME280;18221;38.704;0.152;2023-12-20T12:15:59;99357.09;;;20.91;25.70
10176;BME280;18221;38.704;0.152;2023-12-20T12:18:27;99367.03;;;20.84;25.73
10176;BME280;18221;38.704;0.152;2023-12-20T12:21:00;99357.69;;;20.80;25.94
10176;BME280;18221;38.704;0.152;2023-12-20T12:23:29;99358.38;;;20.68;25.83
10176;BME280;18221;38.704;0.152;2023-12-20T12:25:57;99354.06;;;20.73;25.94
10176;BME280;18221;38.704;0.152;2023-12-20T12:28:28;99355.91;;;20.66;26.20
10176;BME280;18221;38.704;0.152;2023-12-20T12:30:58;99354.06;;;20.73;25.82
10176;BME280;18221;38.704;0.152;2023-12-20T12:33:26;99349.00;;;20.91;25.72
10176;BME280;18221;38.704;0.152;2023-12-20T12:35:55;99339.84;;;20.58;25.91
10176;BME280;18221;38.704;0.152;2023-12-20T12:38:24;99339.72;;;20.66;26.00
10176;BME280;18221;38.704;0.152;2023-12-20T12:40:53;99337.25;;;20.71;25.81
10176;BME280;18221;38.704;0.152;2023-12-20T12:43:21;99348.03;;;20.71;25.60
10176;BME280;18221;38.704;0.152;2023-12-20T12:45:52;99345.00;;;21.09;25.51
10176;BME280;18221;38.704;0.152;2023-12-20T12:48:21;99340.09;;;21.19;25.26
10176;BME280;18221;38.704;0.152;2023-12-20T12:50:49;99336.06;;;21.42;25.15
10176;BME280;18221;38.704;0.152;2023-12-20T12:53:19;99333.13;;;21.44;24.76
10176;BME280;18221;38.704;0.152;2023-12-20T12:55:47;99328.28;;;21.80;24.36
10176;BME280;18221;38.704;0.152;2023-12-20T12:58:15;99324.53;;;21.81;24.13
10176;BME280;18221;38.704;0.152;2023-12-20T13:00:43;99321.91;;;21.94;24.11
10176;BME280;18221;38.704;0.152;2023-12-20T13:03:13;99327.34;;;22.07;24.21
10176;BME280;18221;38.704;0.152;2023-12-20T13:05:41;99319.22;;;22.07;24.27
10176;BME280;18221;38.704;0.152;2023-12-20T13:08:10;99314.88;;;22.20;23.99
10176;BME280;18221;38.704;0.152;2023-12-20T13:10:38;99312.81;;;22.41;24.04
10176;BME280;18221;38.704;0.152;2023-12-20T13:13:06;99317.16;;;22.62;23.67
10176;BME280;18221;38.704;0.152;2023-12-20T13:15:35;99317.38;;;22.54;23.92
10176;BME280;18221;38.704;0.152;2023-12-20T13:18:04;99304.47;;;22.10;24.27
10176;BME280;18221;38.704;0.152;2023-12-20T13:20:34;99308.31;;;21.81;25.10
10176;BME280;18221;38.704;0.152;2023-12-20T13:23:02;99305.47;;;21.89;25.00